sensor_id;sensor_type;location;lat;lon;timestamp;P1;durP1;ratioP1;P2;durP2;ratioP2
359;SDS011;168;48.872;9.226;2022-07-30T00:01:49;8.93;;;8.23;;
359;SDS011;168;48.872;9.226;2022-07-30T00:04:17;8.83;;;8.13;;
359;SDS011;168;48.872;9.226;2022-07-30T00:06:46;8.43;;;7.83;;
359;SDS011;168;48.872;9.226;2022-07-30T00:09:13;9.13;;;8.33;;
359;SDS011;168;48.872;9.226;2022-07-30T00:11:41;9.40;;;8.60;;
359;SDS011;168;48.872;9.226;2022-07-30T00:14:08;8.93;;;8.23;;
359;SDS011;168;48.872;9.226;2022-07-30T00:16:35;9.97;;;9.17;;
359;SDS011;168;48.872;9.226;2022-07-30T00:19:03;10.30;;;9.60;;
359;SDS011;168;48.872;9.226;2022-07-30T00:21:30;10.30;;;9.60;;
359;SDS011;168;48.872;9.226;2022-07-30T00:23:59;9.10;;;8.50;;
359;SDS011;168;48.872;9.226;2022-07-30T00:26:27;9.10;;;8.50;;
359;SDS011;168;48.872;9.226;2022-07-30T00:28:54;9.77;;;8.97;;
359;SDS011;168;48.872;9.226;2022-07-30T00:31:22;9.67;;;9.03;;
359;SDS011;168;48.872;9.226;2022-07-30T00:33:49;9.53;;;8.83;;
359;SDS011;168;48.872;9.226;2022-07-30T00:36:16;9.50;;;8.70;;
359;SDS011;168;48.872;9.226;2022-07-30T00:38:44;9.63;;;8.93;;
359;SDS011;168;48.872;9.226;2022-07-30T00:41:12;8.80;;;8.20;;
359;SDS011;168;48.872;9.226;2022-07-30T00:43:40;9.50;;;8.80;;
359;SDS011;168;48.872;9.226;2022-07-30T00:46:07;9.13;;;8.43;;
359;SDS011;168;48.872;9.226;2022-07-30T00:48:35;9.40;;;8.60;;
359;SDS011;168;48.872;9.226;2022-07-30T00:51:02;9.20;;;8.60;;
359;SDS011;168;48.872;9.226;2022-07-30T00:53:29;8.20;;;7.60;;
359;SDS011;168;48.872;9.226;2022-07-30T00:55:57;8.07;;;7.47;;
359;SDS011;168;48.872;9.226;2022-07-30T00:58:26;8.23;;;7.43;;
359;SDS011;168;48.872;9.226;2022-07-30T01:00:53;6.57;;;6.10;;
359;SDS011;168;48.872;9.226;2022-07-30T01:03:21;7.90;;;6.60;;
359;SDS011;168;48.872;9.226;2022-07-30T01:05:48;6.20;;;5.80;;
359;SDS011;168;48.872;9.226;2022-07-30T01:08:16;6.70;;;6.20;;
359;SDS011;168;48.872;9.226;2022-07-30T01:10:43;6.07;;;5.67;;
359;SDS011;168;48.872;9.226;2022-07-30T01:13:10;6.70;;;6.20;;
359;SDS011;168;48.872;9.226;2022-07-30T01:15:40;6.33;;;5.77;;
359;SDS011;168;48.872;9.226;2022-07-30T01:18:07;6.40;;;5.93;;
359;SDS011;168;48.872;9.226;2022-07-30T01:20:40;6.37;;;5.97;;
359;SDS011;168;48.872;9.226;2022-07-30T01:23:12;6.80;;;6.30;;
359;SDS011;168;48.872;9.226;2022-07-30T01:25:47;6.50;;;6.00;;
359;SDS011;168;48.872;9.226;2022-07-30T01:28:20;5.83;;;5.53;;
359;SDS011;168;48.872;9.226;2022-07-30T01:30:50;6.83;;;6.33;;
359;SDS011;168;48.872;9.226;2022-07-30T01:33:19;6.60;;;6.20;;
359;SDS011;168;48.872;9.226;2022-07-30T01:35:49;6.50;;;6.00;;
359;SDS011;168;48.872;9.226;2022-07-30T01:38:18;7.20;;;6.77;;
359;SDS011;168;48.872;9.226;2022-07-30T01:40:50;6.07;;;5.77;;
359;SDS011;168;48.872;9.226;2022-07-30T01:43:19;7.57;;;7.07;;
359;SDS011;168;48.872;9.226;2022-07-30T01:45:48;6.57;;;6.10;;
359;SDS011;168;48.872;9.226;2022-07-30T01:48:19;6.23;;;5.80;;
359;SDS011;168;48.872;9.226;2022-07-30T01:50:49;7.03;;;6.33;;
359;SDS011;168;48.872;9.226;2022-07-30T01:53:20;6.83;;;6.33;;
359;SDS011;168;48.872;9.226;2022-07-30T01:55:52;6.80;;;6.30;;
359;SDS011;168;48.872;9.226;2022-07-30T01:58:22;6.87;;;6.37;;
359;SDS011;168;48.872;9.226;2022-07-30T02:00:53;8.23;;;7.43;;
359;SDS011;168;48.872;9.226;2022-07-30T02:03:23;7.40;;;6.90;;
359;SDS011;168;48.872;9.226;2022-07-30T02:05:53;7.07;;;6.63;;
359;SDS011;168;48.872;9.226;2022-07-30T02:08:25;7.70;;;7.10;;
359;SDS011;168;48.872;9.226;2022-07-30T02:11:03;8.13;;;7.53;;
359;SDS011;168;48.872;9.226;2022-07-30T02:13:33;8.37;;;7.67;;
359;SDS011;168;48.872;9.226;2022-07-30T02:16:07;7.27;;;6.67;;
359;SDS011;168;48.872;9.226;2022-07-30T02:18:42;8.33;;;7.73;;
359;SDS011;168;48.872;9.226;2022-07-30T02:21:22;7.60;;;7.00;;
359;SDS011;168;48.872;9.226;2022-07-30T02:23:50;6.60;;;6.00;;
359;SDS011;168;48.872;9.226;2022-07-30T02:26:23;7.90;;;7.30;;
359;SDS011;168;48.872;9.226;2022-07-30T02:28:53;8.07;;;7.50;;
359;SDS011;168;48.872;9.226;2022-07-30T02:31:26;7.90;;;7.40;;
359;SDS011;168;48.872;9.226;2022-07-30T02:33:55;7.57;;;7.07;;
359;SDS011;168;48.872;9.226;2022-07-30T02:36:26;7.57;;;7.07;;
359;SDS011;168;48.872;9.226;2022-07-30T02:38:55;7.63;;;7.03;;
359;SDS011;168;48.872;9.226;2022-07-30T02:41:27;8.20;;;7.63;;
359;SDS011;168;48.872;9.226;2022-07-30T02:43:56;8.13;;;7.40;;
359;SDS011;168;48.872;9.226;2022-07-30T02:46:26;7.77;;;7.17;;
359;SDS011;168;48.872;9.226;2022-07-30T02:48:54;8.20;;;7.60;;
359;SDS011;168;48.872;9.226;2022-07-30T02:51:23;8.17;;;7.63;;
359;SDS011;168;48.872;9.226;2022-07-30T02:53:52;8.40;;;7.67;;
359;SDS011;168;48.872;9.226;2022-07-30T02:56:22;7.70;;;7.20;;
359;SDS011;168;48.872;9.226;2022-07-30T02:58:53;7.80;;;7.10;;
359;SDS011;168;48.872;9.226;2022-07-30T03:01:22;8.10;;;7.50;;
359;SDS011;168;48.872;9.226;2022-07-30T03:03:50;8.43;;;7.73;;
359;SDS011;168;48.872;9.226;2022-07-30T03:06:18;8.67;;;8.00;;
359;SDS011;168;48.872;9.226;2022-07-30T03:08:46;9.13;;;8.43;;
359;SDS011;168;48.872;9.226;2022-07-30T03:11:14;9.10;;;8.40;;
359;SDS011;168;48.872;9.226;2022-07-30T03:13:44;9.50;;;8.77;;
359;SDS011;168;48.872;9.226;2022-07-30T03:16:14;9.30;;;8.60;;
359;SDS011;168;48.872;9.226;2022-07-30T03:18:44;10.77;;;9.97;;
359;SDS011;168;48.872;9.226;2022-07-30T03:21:13;10.40;;;9.60;;
359;SDS011;168;48.872;9.226;2022-07-30T03:23:42;11.37;;;10.20;;
359;SDS011;168;48.872;9.226;2022-07-30T03:26:12;10.63;;;9.73;;
359;SDS011;168;48.872;9.226;2022-07-30T03:28:42;10.30;;;9.40;;
359;SDS011;168;48.872;9.226;2022-07-30T03:31:13;10.60;;;9.77;;
359;SDS011;168;48.872;9.226;2022-07-30T03:33:41;10.10;;;9.30;;
359;SDS011;168;48.872;9.226;2022-07-30T03:36:11;10.13;;;9.30;;
359;SDS011;168;48.872;9.226;2022-07-30T03:38:39;13.20;;;11.00;;
359;SDS011;168;48.872;9.226;2022-07-30T03:41:09;10.43;;;9.47;;
359;SDS011;168;48.872;9.226;2022-07-30T03:43:37;9.43;;;8.83;;
359;SDS011;168;48.872;9.226;2022-07-30T03:46:05;10.00;;;8.50;;
359;SDS011;168;48.872;9.226;2022-07-30T03:48:36;10.23;;;9.10;;
359;SDS011;168;48.872;9.226;2022-07-30T03:51:05;10.83;;;9.47;;
359;SDS011;168;48.872;9.226;2022-07-30T03:53:34;9.33;;;8.63;;
359;SDS011;168;48.872;9.226;2022-07-30T03:56:02;9.90;;;9.03;;
359;SDS011;168;48.872;9.226;2022-07-30T03:58:30;9.50;;;8.80;;
359;SDS011;168;48.872;9.226;2022-07-30T04:00:57;10.30;;;9.40;;
359;SDS011;168;48.872;9.226;2022-07-30T04:03:25;9.60;;;8.83;;
359;SDS011;168;48.872;9.226;2022-07-30T04:05:55;10.33;;;9.53;;
359;SDS011;168;48.872;9.226;2022-07-30T04:08:22;11.07;;;9.90;;
359;SDS011;168;48.872;9.226;2022-07-30T04:10:50;11.07;;;10.00;;
359;SDS011;168;48.872;9.226;2022-07-30T04:13:17;11.20;;;10.20;;
359;SDS011;168;48.872;9.226;2022-07-30T04:16:00;10.37;;;9.47;;
359;SDS011;168;48.872;9.226;2022-07-30T04:18:34;10.47;;;9.57;;
359;SDS011;168;48.872;9.226;2022-07-30T04:21:06;10.93;;;10.03;;
359;SDS011;168;48.872;9.226;2022-07-30T04:23:36;10.40;;;9.50;;
359;SDS011;168;48.872;9.226;2022-07-30T04:26:05;9.10;;;8.40;;
359;SDS011;168;48.872;9.226;2022-07-30T04:28:33;9.37;;;8.57;;
359;SDS011;168;48.872;9.226;2022-07-30T04:31:01;10.90;;;8.93;;
359;SDS011;168;48.872;9.226;2022-07-30T04:33:29;8.70;;;7.93;;
359;SDS011;168;48.872;9.226;2022-07-30T04:35:57;9.97;;;9.17;;
359;SDS011;168;48.872;9.226;2022-07-30T04:38:26;10.27;;;9.03;;
359;SDS011;168;48.872;9.226;2022-07-30T04:40:53;9.17;;;8.17;;
359;SDS011;168;48.872;9.226;2022-07-30T04:43:21;8.50;;;7.80;;
359;SDS011;168;48.872;9.226;2022-07-30T04:45:48;9.17;;;8.27;;
359;SDS011;168;48.872;9.226;2022-07-30T04:48:15;7.00;;;6.30;;
359;SDS011;168;48.872;9.226;2022-07-30T04:50:43;7.90;;;7.20;;
359;SDS011;168;48.872;9.226;2022-07-30T04:53:14;9.47;;;8.43;;
359;SDS011;168;48.872;9.226;2022-07-30T04:55:45;9.33;;;8.63;;
359;SDS011;168;48.872;9.226;2022-07-30T04:58:16;10.30;;;9.40;;
359;SDS011;168;48.872;9.226;2022-07-30T05:00:46;9.40;;;8.60;;
359;SDS011;168;48.872;9.226;2022-07-30T05:03:17;7.97;;;7.27;;
359;SDS011;168;48.872;9.226;2022-07-30T05:05:46;8.87;;;7.93;;
359;SDS011;168;48.872;9.226;2022-07-30T05:08:14;10.40;;;9.50;;
359;SDS011;168;48.872;9.226;2022-07-30T05:10:41;7.23;;;6.70;;
359;SDS011;168;48.872;9.226;2022-07-30T05:13:11;8.60;;;7.80;;
359;SDS011;168;48.872;9.226;2022-07-30T05:15:39;7.70;;;7.10;;
359;SDS011;168;48.872;9.226;2022-07-30T05:18:06;9.93;;;9.13;;
359;SDS011;168;48.872;9.226;2022-07-30T05:20:34;8.47;;;7.80;;
359;SDS011;168;48.872;9.226;2022-07-30T05:23:01;7.90;;;7.10;;
359;SDS011;168;48.872;9.226;2022-07-30T05:25:29;9.20;;;8.43;;
359;SDS011;168;48.872;9.226;2022-07-30T05:27:56;6.97;;;6.47;;
359;SDS011;168;48.872;9.226;2022-07-30T05:30:25;9.20;;;8.60;;
359;SDS011;168;48.872;9.226;2022-07-30T05:32:53;9.17;;;8.47;;
359;SDS011;168;48.872;9.226;2022-07-30T05:35:20;9.00;;;8.30;;
359;SDS011;168;48.872;9.226;2022-07-30T05:37:48;9.93;;;9.07;;
359;SDS011;168;48.872;9.226;2022-07-30T05:40:15;8.87;;;8.23;;
359;SDS011;168;48.872;9.226;2022-07-30T05:42:42;9.80;;;9.00;;
359;SDS011;168;48.872;9.226;2022-07-30T05:45:10;9.73;;;8.83;;
359;SDS011;168;48.872;9.226;2022-07-30T05:47:38;9.90;;;9.10;;
359;SDS011;168;48.872;9.226;2022-07-30T05:50:06;9.47;;;8.67;;
359;SDS011;168;48.872;9.226;2022-07-30T05:52:34;9.77;;;9.00;;
359;SDS011;168;48.872;9.226;2022-07-30T05:55:01;11.10;;;10.20;;
359;SDS011;168;48.872;9.226;2022-07-30T05:57:29;10.47;;;9.60;;
359;SDS011;168;48.872;9.226;2022-07-30T05:59:57;9.83;;;8.93;;
359;SDS011;168;48.872;9.226;2022-07-30T06:02:24;10.10;;;9.40;;
359;SDS011;168;48.872;9.226;2022-07-30T06:04:53;9.60;;;8.70;;
359;SDS011;168;48.872;9.226;2022-07-30T06:07:20;10.30;;;8.73;;
359;SDS011;168;48.872;9.226;2022-07-30T06:09:48;9.60;;;8.60;;
359;SDS011;168;48.872;9.226;2022-07-30T06:12:15;8.70;;;8.00;;
359;SDS011;168;48.872;9.226;2022-07-30T06:14:43;9.43;;;8.63;;
359;SDS011;168;48.872;9.226;2022-07-30T06:17:11;9.13;;;8.33;;
359;SDS011;168;48.872;9.226;2022-07-30T06:19:38;8.83;;;8.13;;
359;SDS011;168;48.872;9.226;2022-07-30T06:22:07;9.10;;;8.30;;
359;SDS011;168;48.872;9.226;2022-07-30T06:24:35;9.17;;;8.27;;
359;SDS011;168;48.872;9.226;2022-07-30T06:27:03;9.07;;;8.23;;
359;SDS011;168;48.872;9.226;2022-07-30T06:29:30;9.20;;;8.20;;
359;SDS011;168;48.872;9.226;2022-07-30T06:31:57;8.33;;;7.63;;
359;SDS011;168;48.872;9.226;2022-07-30T06:34:25;7.77;;;7.17;;
359;SDS011;168;48.872;9.226;2022-07-30T06:36:52;8.20;;;7.40;;
359;SDS011;168;48.872;9.226;2022-07-30T06:39:21;8.20;;;7.37;;
359;SDS011;168;48.872;9.226;2022-07-30T06:41:48;9.50;;;8.60;;
359;SDS011;168;48.872;9.226;2022-07-30T06:44:16;8.20;;;7.23;;
359;SDS011;168;48.872;9.226;2022-07-30T06:46:43;7.93;;;7.13;;
359;SDS011;168;48.872;9.226;2022-07-30T06:49:11;8.30;;;7.60;;
359;SDS011;168;48.872;9.226;2022-07-30T06:51:38;7.87;;;7.07;;
359;SDS011;168;48.872;9.226;2022-07-30T06:54:06;7.30;;;6.67;;
359;SDS011;168;48.872;9.226;2022-07-30T06:56:34;6.73;;;6.13;;
359;SDS011;168;48.872;9.226;2022-07-30T06:59:02;7.30;;;6.70;;
359;SDS011;168;48.872;9.226;2022-07-30T07:01:29;7.20;;;6.50;;
359;SDS011;168;48.872;9.226;2022-07-30T07:03:56;6.47;;;5.93;;
359;SDS011;168;48.872;9.226;2022-07-30T07:06:24;7.77;;;7.00;;
359;SDS011;168;48.872;9.226;2022-07-30T07:08:51;8.13;;;7.40;;
359;SDS011;168;48.872;9.226;2022-07-30T07:11:19;7.43;;;6.27;;
359;SDS011;168;48.872;9.226;2022-07-30T07:13:47;6.43;;;5.93;;
359;SDS011;168;48.872;9.226;2022-07-30T07:16:15;10.93;;;7.40;;
359;SDS011;168;48.872;9.226;2022-07-30T07:18:46;8.73;;;6.90;;
359;SDS011;168;48.872;9.226;2022-07-30T07:21:13;10.10;;;7.57;;
359;SDS011;168;48.872;9.226;2022-07-30T07:23:41;8.17;;;7.37;;
359;SDS011;168;48.872;9.226;2022-07-30T07:26:09;8.50;;;7.53;;
359;SDS011;168;48.872;9.226;2022-07-30T07:28:36;7.80;;;7.10;;
359;SDS011;168;48.872;9.226;2022-07-30T07:31:06;6.93;;;6.33;;
359;SDS011;168;48.872;9.226;2022-07-30T07:33:34;7.87;;;6.97;;
359;SDS011;168;48.872;9.226;2022-07-30T07:36:01;7.73;;;7.03;;
359;SDS011;168;48.872;9.226;2022-07-30T07:38:29;7.77;;;7.10;;
359;SDS011;168;48.872;9.226;2022-07-30T07:40:57;8.27;;;6.80;;
359;SDS011;168;48.872;9.226;2022-07-30T07:43:24;7.00;;;6.30;;
359;SDS011;168;48.872;9.226;2022-07-30T07:45:51;8.77;;;7.30;;
359;SDS011;168;48.872;9.226;2022-07-30T07:48:20;7.20;;;6.60;;
359;SDS011;168;48.872;9.226;2022-07-30T07:50:48;8.47;;;7.67;;
359;SDS011;168;48.872;9.226;2022-07-30T07:53:16;7.90;;;7.10;;
359;SDS011;168;48.872;9.226;2022-07-30T07:55:43;7.57;;;6.97;;
359;SDS011;168;48.872;9.226;2022-07-30T07:58:11;6.87;;;6.27;;
359;SDS011;168;48.872;9.226;2022-07-30T08:00:38;7.63;;;6.83;;
359;SDS011;168;48.872;9.226;2022-07-30T08:03:06;7.60;;;6.90;;
359;SDS011;168;48.872;9.226;2022-07-30T08:05:35;7.53;;;6.83;;
359;SDS011;168;48.872;9.226;2022-07-30T08:08:02;7.47;;;6.87;;
359;SDS011;168;48.872;9.226;2022-07-30T08:10:30;7.87;;;6.73;;
359;SDS011;168;48.872;9.226;2022-07-30T08:12:57;7.33;;;6.70;;
359;SDS011;168;48.872;9.226;2022-07-30T08:15:27;6.90;;;6.37;;
359;SDS011;168;48.872;9.226;2022-07-30T08:17:54;6.30;;;5.23;;
359;SDS011;168;48.872;9.226;2022-07-30T08:20:21;6.70;;;6.10;;
359;SDS011;168;48.872;9.226;2022-07-30T08:22:51;5.90;;;5.40;;
359;SDS011;168;48.872;9.226;2022-07-30T08:25:19;5.93;;;5.27;;
359;SDS011;168;48.872;9.226;2022-07-30T08:27:47;6.60;;;6.10;;
359;SDS011;168;48.872;9.226;2022-07-30T08:30:15;6.20;;;5.70;;
359;SDS011;168;48.872;9.226;2022-07-30T08:32:42;6.77;;;6.27;;
359;SDS011;168;48.872;9.226;2022-07-30T08:35:10;6.97;;;6.13;;
359;SDS011;168;48.872;9.226;2022-07-30T08:37:37;7.43;;;5.80;;
359;SDS011;168;48.872;9.226;2022-07-30T08:40:07;6.83;;;6.23;;
359;SDS011;168;48.872;9.226;2022-07-30T08:42:35;6.90;;;6.30;;
359;SDS011;168;48.872;9.226;2022-07-30T08:45:04;5.60;;;5.20;;
359;SDS011;168;48.872;9.226;2022-07-30T08:47:33;6.47;;;5.97;;
359;SDS011;168;48.872;9.226;2022-07-30T08:50:04;6.03;;;5.50;;
359;SDS011;168;48.872;9.226;2022-07-30T08:52:35;6.13;;;5.63;;
359;SDS011;168;48.872;9.226;2022-07-30T08:55:04;6.40;;;5.90;;
359;SDS011;168;48.872;9.226;2022-07-30T08:57:34;6.00;;;5.60;;
359;SDS011;168;48.872;9.226;2022-07-30T09:00:02;6.03;;;5.40;;
359;SDS011;168;48.872;9.226;2022-07-30T09:02:31;6.20;;;5.60;;
359;SDS011;168;48.872;9.226;2022-07-30T09:04:59;7.03;;;6.33;;
359;SDS011;168;48.872;9.226;2022-07-30T09:07:26;5.67;;;5.17;;
359;SDS011;168;48.872;9.226;2022-07-30T09:09:54;6.67;;;5.97;;
359;SDS011;168;48.872;9.226;2022-07-30T09:12:33;6.20;;;5.70;;
359;SDS011;168;48.872;9.226;2022-07-30T09:15:11;6.40;;;5.90;;
359;SDS011;168;48.872;9.226;2022-07-30T09:17:48;5.77;;;5.37;;
359;SDS011;168;48.872;9.226;2022-07-30T09:20:23;5.60;;;5.20;;
359;SDS011;168;48.872;9.226;2022-07-30T09:22:54;5.10;;;4.80;;
359;SDS011;168;48.872;9.226;2022-07-30T09:25:32;5.90;;;5.23;;
359;SDS011;168;48.872;9.226;2022-07-30T09:30:57;5.37;;;4.97;;
359;SDS011;168;48.872;9.226;2022-07-30T09:33:33;10.13;;;5.90;;
359;SDS011;168;48.872;9.226;2022-07-30T09:36:02;6.77;;;5.83;;
359;SDS011;168;48.872;9.226;2022-07-30T09:38:41;5.13;;;4.73;;
359;SDS011;168;48.872;9.226;2022-07-30T09:41:10;5.87;;;5.37;;
359;SDS011;168;48.872;9.226;2022-07-30T09:43:43;8.10;;;5.07;;
359;SDS011;168;48.872;9.226;2022-07-30T09:46:11;6.27;;;5.67;;
359;SDS011;168;48.872;9.226;2022-07-30T09:48:40;5.67;;;5.03;;
359;SDS011;168;48.872;9.226;2022-07-30T09:51:08;5.30;;;4.90;;
359;SDS011;168;48.872;9.226;2022-07-30T09:53:35;5.90;;;4.50;;
359;SDS011;168;48.872;9.226;2022-07-30T09:56:23;6.07;;;5.57;;
359;SDS011;168;48.872;9.226;2022-07-30T09:58:53;5.57;;;5.00;;
359;SDS011;168;48.872;9.226;2022-07-30T10:01:20;5.73;;;5.33;;
359;SDS011;168;48.872;9.226;2022-07-30T10:03:48;5.33;;;4.30;;
359;SDS011;168;48.872;9.226;2022-07-30T10:06:16;5.20;;;4.37;;
359;SDS011;168;48.872;9.226;2022-07-30T10:08:44;4.47;;;4.07;;
359;SDS011;168;48.872;9.226;2022-07-30T10:11:16;4.40;;;4.00;;
359;SDS011;168;48.872;9.226;2022-07-30T10:13:47;5.17;;;4.30;;
359;SDS011;168;48.872;9.226;2022-07-30T10:16:17;5.57;;;5.07;;
359;SDS011;168;48.872;9.226;2022-07-30T10:18:45;6.37;;;4.80;;
359;SDS011;168;48.872;9.226;2022-07-30T10:21:13;4.40;;;3.93;;
359;SDS011;168;48.872;9.226;2022-07-30T10:23:41;5.33;;;4.60;;
359;SDS011;168;48.872;9.226;2022-07-30T10:26:09;4.43;;;4.10;;
359;SDS011;168;48.872;9.226;2022-07-30T10:28:36;4.90;;;4.50;;
359;SDS011;168;48.872;9.226;2022-07-30T10:31:08;5.40;;;4.90;;
359;SDS011;168;48.872;9.226;2022-07-30T10:33:37;4.77;;;4.43;;
359;SDS011;168;48.872;9.226;2022-07-30T10:36:05;4.90;;;4.50;;
359;SDS011;168;48.872;9.226;2022-07-30T10:38:36;4.47;;;4.17;;
359;SDS011;168;48.872;9.226;2022-07-30T10:41:09;4.30;;;4.00;;
359;SDS011;168;48.872;9.226;2022-07-30T10:43:46;4.40;;;4.00;;
359;SDS011;168;48.872;9.226;2022-07-30T10:46:32;4.20;;;3.90;;
359;SDS011;168;48.872;9.226;2022-07-30T10:49:12;5.03;;;4.63;;
359;SDS011;168;48.872;9.226;2022-07-30T10:51:43;4.33;;;4.03;;
359;SDS011;168;48.872;9.226;2022-07-30T10:57:03;4.50;;;4.20;;
359;SDS011;168;48.872;9.226;2022-07-30T11:02:38;4.50;;;4.17;;
359;SDS011;168;48.872;9.226;2022-07-30T11:05:22;4.93;;;4.20;;
359;SDS011;168;48.872;9.226;2022-07-30T11:07:52;4.37;;;3.97;;
359;SDS011;168;48.872;9.226;2022-07-30T11:10:32;4.20;;;3.80;;
359;SDS011;168;48.872;9.226;2022-07-30T11:13:01;3.70;;;3.40;;
359;SDS011;168;48.872;9.226;2022-07-30T11:18:20;3.87;;;3.53;;
359;SDS011;168;48.872;9.226;2022-07-30T11:23:43;4.03;;;3.47;;
359;SDS011;168;48.872;9.226;2022-07-30T11:35:16;3.00;;;2.80;;
359;SDS011;168;48.872;9.226;2022-07-30T11:38:03;3.20;;;2.90;;
359;SDS011;168;48.872;9.226;2022-07-30T11:40:33;3.10;;;2.90;;
359;SDS011;168;48.872;9.226;2022-07-30T11:43:15;3.73;;;3.37;;
359;SDS011;168;48.872;9.226;2022-07-30T11:45:48;3.17;;;2.97;;
359;SDS011;168;48.872;9.226;2022-07-30T11:48:18;3.00;;;2.80;;
359;SDS011;168;48.872;9.226;2022-07-30T11:50:46;3.50;;;3.30;;
359;SDS011;168;48.872;9.226;2022-07-30T11:53:16;4.63;;;3.30;;
359;SDS011;168;48.872;9.226;2022-07-30T11:55:49;3.60;;;3.10;;
359;SDS011;168;48.872;9.226;2022-07-30T11:58:24;3.30;;;2.87;;
359;SDS011;168;48.872;9.226;2022-07-30T12:00:54;3.20;;;2.93;;
359;SDS011;168;48.872;9.226;2022-07-30T12:03:25;3.13;;;2.93;;
359;SDS011;168;48.872;9.226;2022-07-30T12:05:56;3.40;;;3.20;;
359;SDS011;168;48.872;9.226;2022-07-30T12:08:39;3.47;;;3.17;;
359;SDS011;168;48.872;9.226;2022-07-30T12:11:07;3.53;;;3.30;;
359;SDS011;168;48.872;9.226;2022-07-30T12:13:35;3.30;;;3.10;;
359;SDS011;168;48.872;9.226;2022-07-30T12:16:06;3.67;;;3.40;;
359;SDS011;168;48.872;9.226;2022-07-30T12:18:34;6.33;;;3.40;;
359;SDS011;168;48.872;9.226;2022-07-30T12:21:04;4.10;;;3.30;;
359;SDS011;168;48.872;9.226;2022-07-30T12:23:41;3.70;;;3.40;;
359;SDS011;168;48.872;9.226;2022-07-30T12:26:23;3.73;;;3.43;;
359;SDS011;168;48.872;9.226;2022-07-30T12:28:52;3.40;;;3.20;;
359;SDS011;168;48.872;9.226;2022-07-30T12:31:20;3.67;;;3.37;;
359;SDS011;168;48.872;9.226;2022-07-30T12:33:48;3.83;;;3.63;;
359;SDS011;168;48.872;9.226;2022-07-30T12:36:25;3.07;;;2.97;;
359;SDS011;168;48.872;9.226;2022-07-30T12:38:56;3.70;;;3.40;;
359;SDS011;168;48.872;9.226;2022-07-30T12:41:43;3.53;;;3.23;;
359;SDS011;168;48.872;9.226;2022-07-30T12:47:01;5.30;;;3.10;;
359;SDS011;168;48.872;9.226;2022-07-30T12:49:30;3.63;;;3.33;;
359;SDS011;168;48.872;9.226;2022-07-30T12:51:58;3.50;;;3.30;;
359;SDS011;168;48.872;9.226;2022-07-30T12:54:28;4.40;;;3.30;;
359;SDS011;168;48.872;9.226;2022-07-30T12:56:56;4.00;;;3.63;;
359;SDS011;168;48.872;9.226;2022-07-30T12:59:24;3.50;;;3.20;;
359;SDS011;168;48.872;9.226;2022-07-30T13:01:53;3.23;;;2.93;;
359;SDS011;168;48.872;9.226;2022-07-30T13:04:21;4.47;;;3.33;;
359;SDS011;168;48.872;9.226;2022-07-30T13:07:02;2.93;;;2.83;;
359;SDS011;168;48.872;9.226;2022-07-30T13:09:31;3.97;;;3.00;;
359;SDS011;168;48.872;9.226;2022-07-30T13:11:58;4.13;;;3.40;;
359;SDS011;168;48.872;9.226;2022-07-30T13:14:26;3.50;;;3.30;;
359;SDS011;168;48.872;9.226;2022-07-30T13:16:54;3.80;;;3.50;;
359;SDS011;168;48.872;9.226;2022-07-30T13:19:23;2.93;;;2.73;;
359;SDS011;168;48.872;9.226;2022-07-30T13:21:50;3.80;;;3.50;;
359;SDS011;168;48.872;9.226;2022-07-30T13:24:18;6.23;;;3.30;;
359;SDS011;168;48.872;9.226;2022-07-30T13:26:47;4.63;;;3.27;;
359;SDS011;168;48.872;9.226;2022-07-30T13:29:15;3.20;;;3.00;;
359;SDS011;168;48.872;9.226;2022-07-30T13:31:42;3.10;;;2.90;;
359;SDS011;168;48.872;9.226;2022-07-30T13:34:10;4.30;;;3.60;;
359;SDS011;168;48.872;9.226;2022-07-30T13:36:38;3.00;;;2.80;;
359;SDS011;168;48.872;9.226;2022-07-30T13:39:06;3.50;;;3.30;;
359;SDS011;168;48.872;9.226;2022-07-30T13:41:37;3.27;;;3.07;;
359;SDS011;168;48.872;9.226;2022-07-30T13:44:08;3.10;;;2.90;;
359;SDS011;168;48.872;9.226;2022-07-30T13:46:36;3.20;;;2.90;;
359;SDS011;168;48.872;9.226;2022-07-30T13:49:06;3.27;;;3.17;;
359;SDS011;168;48.872;9.226;2022-07-30T13:51:35;3.33;;;3.13;;
359;SDS011;168;48.872;9.226;2022-07-30T13:54:05;3.10;;;2.90;;
359;SDS011;168;48.872;9.226;2022-07-30T13:56:33;3.20;;;3.00;;
359;SDS011;168;48.872;9.226;2022-07-30T13:59:01;3.43;;;3.23;;
359;SDS011;168;48.872;9.226;2022-07-30T14:01:31;4.10;;;2.83;;
359;SDS011;168;48.872;9.226;2022-07-30T14:04:00;3.63;;;3.33;;
359;SDS011;168;48.872;9.226;2022-07-30T14:09:35;3.40;;;3.10;;
359;SDS011;168;48.872;9.226;2022-07-30T14:12:04;2.77;;;2.57;;
359;SDS011;168;48.872;9.226;2022-07-30T14:14:31;3.50;;;2.70;;
359;SDS011;168;48.872;9.226;2022-07-30T14:17:00;3.73;;;2.53;;
359;SDS011;168;48.872;9.226;2022-07-30T14:19:28;4.63;;;3.27;;
359;SDS011;168;48.872;9.226;2022-07-30T14:22:05;3.60;;;3.23;;
359;SDS011;168;48.872;9.226;2022-07-30T14:24:59;4.80;;;3.40;;
359;SDS011;168;48.872;9.226;2022-07-30T14:27:27;3.13;;;2.93;;
359;SDS011;168;48.872;9.226;2022-07-30T14:29:54;3.10;;;2.90;;
359;SDS011;168;48.872;9.226;2022-07-30T14:32:24;2.53;;;2.33;;
359;SDS011;168;48.872;9.226;2022-07-30T14:34:52;3.10;;;2.90;;
359;SDS011;168;48.872;9.226;2022-07-30T14:37:34;3.73;;;2.57;;
359;SDS011;168;48.872;9.226;2022-07-30T14:40:03;2.97;;;2.70;;
359;SDS011;168;48.872;9.226;2022-07-30T15:34:28;3.90;;;2.97;;
359;SDS011;168;48.872;9.226;2022-07-30T15:36:58;2.50;;;2.30;;
359;SDS011;168;48.872;9.226;2022-07-30T15:39:27;2.47;;;2.33;;
359;SDS011;168;48.872;9.226;2022-07-30T15:41:56;3.13;;;2.93;;
359;SDS011;168;48.872;9.226;2022-07-30T15:44:24;2.80;;;2.60;;
359;SDS011;168;48.872;9.226;2022-07-30T15:46:51;2.47;;;2.37;;
359;SDS011;168;48.872;9.226;2022-07-30T15:49:19;2.70;;;2.50;;
359;SDS011;168;48.872;9.226;2022-07-30T15:51:48;3.47;;;3.03;;
359;SDS011;168;48.872;9.226;2022-07-30T15:54:17;2.40;;;2.30;;
359;SDS011;168;48.872;9.226;2022-07-30T15:56:47;3.20;;;3.00;;
359;SDS011;168;48.872;9.226;2022-07-30T15:59:15;2.90;;;2.70;;
359;SDS011;168;48.872;9.226;2022-07-30T16:01:42;2.63;;;2.53;;
359;SDS011;168;48.872;9.226;2022-07-30T16:04:09;3.00;;;2.80;;
359;SDS011;168;48.872;9.226;2022-07-30T16:06:37;3.60;;;2.90;;
359;SDS011;168;48.872;9.226;2022-07-30T16:09:08;3.00;;;2.80;;
359;SDS011;168;48.872;9.226;2022-07-30T16:11:36;2.50;;;2.30;;
359;SDS011;168;48.872;9.226;2022-07-30T16:14:03;2.50;;;2.40;;
359;SDS011;168;48.872;9.226;2022-07-30T16:16:31;2.80;;;2.53;;
359;SDS011;168;48.872;9.226;2022-07-30T16:18:58;3.07;;;2.77;;
359;SDS011;168;48.872;9.226;2022-07-30T16:21:25;2.77;;;2.57;;
359;SDS011;168;48.872;9.226;2022-07-30T16:23:53;3.47;;;3.27;;
359;SDS011;168;48.872;9.226;2022-07-30T16:26:22;4.07;;;2.90;;
359;SDS011;168;48.872;9.226;2022-07-30T16:28:50;3.10;;;2.90;;
359;SDS011;168;48.872;9.226;2022-07-30T16:31:17;2.67;;;2.57;;
359;SDS011;168;48.872;9.226;2022-07-30T16:33:45;2.70;;;2.60;;
359;SDS011;168;48.872;9.226;2022-07-30T16:36:12;2.93;;;2.83;;
359;SDS011;168;48.872;9.226;2022-07-30T16:38:41;3.00;;;2.80;;
359;SDS011;168;48.872;9.226;2022-07-30T16:41:09;2.73;;;2.53;;
359;SDS011;168;48.872;9.226;2022-07-30T16:43:39;2.90;;;2.70;;
359;SDS011;168;48.872;9.226;2022-07-30T16:46:07;3.17;;;2.97;;
359;SDS011;168;48.872;9.226;2022-07-30T16:48:35;4.10;;;2.93;;
359;SDS011;168;48.872;9.226;2022-07-30T16:51:02;2.50;;;2.30;;
359;SDS011;168;48.872;9.226;2022-07-30T16:53:31;3.00;;;2.70;;
359;SDS011;168;48.872;9.226;2022-07-30T16:55:58;3.00;;;2.80;;
359;SDS011;168;48.872;9.226;2022-07-30T16:58:26;2.87;;;2.67;;
359;SDS011;168;48.872;9.226;2022-07-30T17:00:55;2.80;;;2.70;;
359;SDS011;168;48.872;9.226;2022-07-30T17:03:22;2.87;;;2.67;;
359;SDS011;168;48.872;9.226;2022-07-30T17:05:50;2.73;;;2.53;;
359;SDS011;168;48.872;9.226;2022-07-30T17:08:19;2.63;;;2.43;;
359;SDS011;168;48.872;9.226;2022-07-30T17:10:47;2.63;;;2.53;;
359;SDS011;168;48.872;9.226;2022-07-30T17:13:14;2.97;;;2.77;;
359;SDS011;168;48.872;9.226;2022-07-30T17:15:49;3.20;;;2.90;;
359;SDS011;168;48.872;9.226;2022-07-30T17:22:26;2.80;;;2.60;;
359;SDS011;168;48.872;9.226;2022-07-30T17:27:32;2.73;;;2.53;;